METAR Luftfahrt Wetterdaten     LSZH Zürich Airport
Temperatur
13°C Temperatur
9°C Taupunkt
77% Feuchtigkeit



Wind
10 KM/h
6 MPS
3 M/S
5 KTS



280°
W
Aktuelle Wetterlage

Teilweise bewölkt Teilweise bewölkt
Luftdruck 1009.82 (hPa) - 29.82 (inHg)
Sichtweite 6 (Meile) - 9.7 (Km)
Flughafen
Flughafen Code LSZH

Position : Zürich Airport
Entfernung: 60 (Km)

Metar:
LSZH 302150Z AUTO 28005KT 240V310 9999 FEW018 SCT024 BKN060 13/09 Q1010 NOSIG

Zeit: 30-05-2024 23:50 CEST